Time;durP1;ratioP1;P1;durP2;ratioP2;P2;SDS_P1;SDS_P2;PMS_P1;PMS_P2;Temp;Humidity;BMP_temperature;BMP_pressure;BME280_temperature;BME280_humidity;BME280_pressure;Samples;Min_cycle;Max_cycle;Signal;HPM_P1;HPM_P2
2023/07/02 00:01:27;;;;;;;4.13;1.98;;;;;;;;;;5023940;28;20040;-76
2023/07/02 00:03:52;;;;;;;2.92;1.70;;;;;;;;;;5000380;22;20292;-74
2023/07/02 00:06:18;;;;;;;3.38;1.90;;;;;;;;;;5035968;28;20476;-75
2023/07/02 00:08:43;;;;;;;4.60;2.05;;;;;;;;;;5069699;28;20075;-76
2023/07/02 00:11:12;;;;;;;4.80;2.08;;;;;;;;;;5056928;28;20488;-75
2023/07/02 00:13:38;;;;;;;2.78;1.55;;;;;;;;;;5032776;28;20025;-75
2023/07/02 00:16:04;;;;;;;6.25;1.65;;;;;;;;;;5044622;28;20060;-75
2023/07/02 00:18:33;;;;;;;5.15;1.20;;;;;;;;;;5066620;28;20020;-77
2023/07/02 00:21:05;;;;;;;3.22;1.60;;;;;;;;;;5037801;28;20044;-75
2023/07/02 00:23:30;;;;;;;2.58;1.40;;;;;;;;;;5067277;28;20032;-76
2023/07/02 00:25:56;;;;;;;3.05;1.33;;;;;;;;;;5061502;28;20420;-76
2023/07/02 00:28:22;;;;;;;2.30;1.27;;;;;;;;;;5059956;28;20381;-77
2023/07/02 00:30:47;;;;;;;3.22;1.50;;;;;;;;;;5033338;28;20491;-76
2023/07/02 00:33:13;;;;;;;2.28;1.35;;;;;;;;;;5056555;28;20032;-75
2023/07/02 00:35:39;;;;;;;5.20;1.88;;;;;;;;;;5048411;28;20036;-76
2023/07/02 00:38:04;;;;;;;4.72;1.55;;;;;;;;;;5062548;28;20100;-76
2023/07/02 00:40:30;;;;;;;3.42;1.30;;;;;;;;;;5058918;28;20400;-76
2023/07/02 00:42:56;;;;;;;3.17;1.65;;;;;;;;;;5068675;28;20025;-76
2023/07/02 00:45:22;;;;;;;2.85;1.30;;;;;;;;;;5038345;28;20063;-76
2023/07/02 00:47:48;;;;;;;3.60;1.70;;;;;;;;;;5013307;28;20437;-75
2023/07/02 00:50:14;;;;;;;3.90;1.58;;;;;;;;;;5028702;28;20044;-76
2023/07/02 00:52:39;;;;;;;5.50;1.20;;;;;;;;;;5002748;28;20038;-76
2023/07/02 00:55:05;;;;;;;3.47;1.40;;;;;;;;;;5032272;28;20037;-76
2023/07/02 00:57:32;;;;;;;3.63;1.38;;;;;;;;;;5022805;28;20442;-76
2023/07/02 01:00:00;;;;;;;2.58;1.48;;;;;;;;;;5044531;28;20033;-75
2023/07/02 01:02:29;;;;;;;3.67;1.17;;;;;;;;;;5046124;28;20039;-76
2023/07/02 01:04:59;;;;;;;3.92;1.40;;;;;;;;;;5001903;28;20083;-76
2023/07/02 01:07:25;;;;;;;3.15;1.40;;;;;;;;;;5048821;28;20036;-77
2023/07/02 01:09:51;;;;;;;3.05;1.40;;;;;;;;;;5059396;28;20032;-76
2023/07/02 01:12:17;;;;;;;4.07;1.30;;;;;;;;;;5036611;28;20061;-77
2023/07/02 01:14:52;;;;;;;3.63;1.42;;;;;;;;;;5044319;28;20113;-76
2023/07/02 01:17:19;;;;;;;4.35;1.58;;;;;;;;;;5038723;28;20024;-76
2023/07/02 01:19:52;;;;;;;5.70;1.50;;;;;;;;;;5029536;28;20040;-75
2023/07/02 01:22:19;;;;;;;2.65;1.40;;;;;;;;;;5028342;28;20028;-76
2023/07/02 01:24:46;;;;;;;4.80;1.67;;;;;;;;;;5037836;28;20033;-77
2023/07/02 01:27:12;;;;;;;3.05;1.40;;;;;;;;;;5033391;28;20102;-77
2023/07/02 01:29:38;;;;;;;2.63;1.55;;;;;;;;;;5039393;28;20487;-75
2023/07/02 01:32:03;;;;;;;2.67;1.45;;;;;;;;;;5006752;28;20025;-77
2023/07/02 01:34:29;;;;;;;2.90;1.48;;;;;;;;;;5030298;28;20103;-77
2023/07/02 01:36:54;;;;;;;3.08;1.45;;;;;;;;;;5054518;28;20024;-76
2023/07/02 01:39:20;;;;;;;3.33;1.70;;;;;;;;;;5049319;28;20666;-76
2023/07/02 01:41:52;;;;;;;3.35;1.50;;;;;;;;;;5040449;28;20025;-77
2023/07/02 01:44:19;;;;;;;4.75;1.45;;;;;;;;;;5058984;28;20463;-76
2023/07/02 01:46:48;;;;;;;2.78;1.35;;;;;;;;;;5066443;28;20039;-76
2023/07/02 01:49:15;;;;;;;3.97;1.50;;;;;;;;;;5020089;28;20032;-77
2023/07/02 01:51:40;;;;;;;3.95;1.67;;;;;;;;;;5029283;28;20029;-77
2023/07/02 01:54:06;;;;;;;3.45;1.95;;;;;;;;;;5043276;28;20414;-77
2023/07/02 01:56:31;;;;;;;3.03;1.40;;;;;;;;;;5022895;28;20025;-75
2023/07/02 01:58:57;;;;;;;2.95;1.38;;;;;;;;;;5049132;28;20029;-76
2023/07/02 02:01:23;;;;;;;5.53;2.30;;;;;;;;;;5020642;28;20087;-76
2023/07/02 02:03:48;;;;;;;2.85;1.52;;;;;;;;;;5028321;28;20029;-76
2023/07/02 02:06:14;;;;;;;3.38;1.58;;;;;;;;;;5044422;28;20086;-76
2023/07/02 02:08:40;;;;;;;3.53;1.83;;;;;;;;;;5040068;28;20036;-76
2023/07/02 02:11:05;;;;;;;2.22;1.40;;;;;;;;;;5052627;28;20487;-76
2023/07/02 02:13:31;;;;;;;4.85;1.60;;;;;;;;;;5009334;28;20029;-76
2023/07/02 02:15:57;;;;;;;3.88;1.90;;;;;;;;;;5027748;28;20508;-78
2023/07/02 02:18:22;;;;;;;3.65;1.63;;;;;;;;;;5008939;28;20024;-76
2023/07/02 02:20:48;;;;;;;4.18;1.70;;;;;;;;;;5007215;28;20048;-77
2023/07/02 02:23:14;;;;;;;2.70;1.42;;;;;;;;;;5052786;28;20488;-77
2023/07/02 02:25:40;;;;;;;3.25;1.80;;;;;;;;;;5010370;28;20102;-76
2023/07/02 02:28:06;;;;;;;2.95;1.52;;;;;;;;;;5029486;28;20033;-76
2023/07/02 02:30:31;;;;;;;6.68;2.08;;;;;;;;;;5049680;28;20472;-76
2023/07/02 02:32:57;;;;;;;4.65;1.67;;;;;;;;;;5057425;28;20468;-76
2023/07/02 02:35:23;;;;;;;4.47;1.70;;;;;;;;;;5031943;28;20025;-75
2023/07/02 02:37:50;;;;;;;4.05;1.70;;;;;;;;;;5016178;28;20215;-76
2023/07/02 02:40:16;;;;;;;2.90;2.10;;;;;;;;;;5062135;28;20037;-77
2023/07/02 02:42:41;;;;;;;7.13;1.70;;;;;;;;;;5050745;28;20395;-77
2023/07/02 02:45:07;;;;;;;5.90;2.20;;;;;;;;;;5057593;28;20546;-76
2023/07/02 02:47:34;;;;;;;5.88;2.10;;;;;;;;;;5051890;28;20056;-77
2023/07/02 02:49:59;;;;;;;4.35;2.00;;;;;;;;;;5046938;28;20479;-77
2023/07/02 02:52:25;;;;;;;5.13;1.80;;;;;;;;;;5065313;28;20079;-76
2023/07/02 02:54:52;;;;;;;5.72;2.00;;;;;;;;;;5056767;28;20029;-77
2023/07/02 02:57:18;;;;;;;3.78;1.77;;;;;;;;;;5031187;28;20024;-76
2023/07/02 02:59:44;;;;;;;4.57;1.80;;;;;;;;;;5037869;28;20480;-77
2023/07/02 03:02:09;;;;;;;5.00;2.10;;;;;;;;;;5050122;28;20043;-76
2023/07/02 03:04:39;;;;;;;6.30;2.17;;;;;;;;;;5070222;28;20037;-77
2023/07/02 03:07:06;;;;;;;3.58;2.00;;;;;;;;;;5080157;28;20050;-77
2023/07/02 03:09:32;;;;;;;5.13;1.90;;;;;;;;;;5046179;28;20047;-76
2023/07/02 03:11:57;;;;;;;3.70;1.85;;;;;;;;;;5046045;28;20449;-76
2023/07/02 03:14:23;;;;;;;4.68;2.03;;;;;;;;;;5041519;28;20399;-76
2023/07/02 03:16:48;;;;;;;3.55;1.88;;;;;;;;;;5019552;28;20029;-76
2023/07/02 03:19:15;;;;;;;6.68;2.40;;;;;;;;;;5068306;28;20053;-76
2023/07/02 03:21:44;;;;;;;3.60;1.90;;;;;;;;;;5041639;28;20037;-77
2023/07/02 03:24:13;;;;;;;3.63;2.20;;;;;;;;;;5044197;28;20032;-76
2023/07/02 03:26:38;;;;;;;;;;;;;;;;;;5050382;28;20043;-77
2023/07/02 03:29:04;;;;;;;3.65;1.73;;;;;;;;;;5022189;28;19912;-78
2023/07/02 03:31:29;;;;;;;3.25;2.00;;;;;;;;;;5045714;28;20040;-76
2023/07/02 03:33:55;;;;;;;5.60;2.20;;;;;;;;;;5032641;28;20024;-77
2023/07/02 03:36:20;;;;;;;3.42;1.83;;;;;;;;;;5042545;28;20440;-77
2023/07/02 03:38:46;;;;;;;3.20;1.90;;;;;;;;;;5050888;28;20035;-77
2023/07/02 03:41:11;;;;;;;4.05;1.80;;;;;;;;;;5021475;28;20047;-77
2023/07/02 03:43:37;;;;;;;3.67;2.22;;;;;;;;;;5066276;28;20025;-76
2023/07/02 03:46:02;;;;;;;5.07;2.10;;;;;;;;;;5012043;28;20400;-77
2023/07/02 03:48:28;;;;;;;7.72;1.95;;;;;;;;;;5024790;28;20033;-77
2023/07/02 03:50:54;;;;;;;5.10;1.88;;;;;;;;;;5034444;28;20043;-77
2023/07/02 03:53:20;;;;;;;3.53;1.73;;;;;;;;;;5022344;28;20070;-77
2023/07/02 03:55:45;;;;;;;5.88;2.40;;;;;;;;;;5030295;28;20033;-77
2023/07/02 03:58:11;;;;;;;4.30;2.00;;;;;;;;;;5063275;28;20028;-77
2023/07/02 04:00:36;;;;;;;4.32;1.77;;;;;;;;;;5039619;28;20063;-76
2023/07/02 04:03:03;;;;;;;3.20;1.95;;;;;;;;;;5051074;28;20067;-76
2023/07/02 04:05:28;;;;;;;3.50;1.70;;;;;;;;;;5057140;28;20039;-78
2023/07/02 04:07:54;;;;;;;3.97;1.73;;;;;;;;;;5045947;28;20029;-76
2023/07/02 04:10:19;;;;;;;4.63;1.98;;;;;;;;;;5064202;28;20036;-76
2023/07/02 04:12:45;;;;;;;2.85;1.70;;;;;;;;;;5031161;28;20025;-76
2023/07/02 04:15:11;;;;;;;3.05;1.92;;;;;;;;;;5033337;28;20475;-76
2023/07/02 04:17:36;;;;;;;3.50;1.73;;;;;;;;;;5040613;28;20031;-75
2023/07/02 04:20:06;;;;;;;3.15;1.63;;;;;;;;;;5044333;28;20440;-76
2023/07/02 04:22:32;;;;;;;2.80;1.67;;;;;;;;;;5014882;28;20036;-78
2023/07/02 04:24:57;;;;;;;2.83;1.55;;;;;;;;;;5021167;28;20039;-77
2023/07/02 04:27:23;;;;;;;4.82;1.70;;;;;;;;;;5049882;28;20090;-76
2023/07/02 04:29:48;;;;;;;4.35;1.70;;;;;;;;;;5009218;28;20078;-76
2023/07/02 04:32:14;;;;;;;3.00;2.10;;;;;;;;;;5048372;28;20392;-76
2023/07/02 04:34:41;;;;;;;5.40;1.80;;;;;;;;;;5027571;28;20078;-77
2023/07/02 04:37:07;;;;;;;2.58;1.67;;;;;;;;;;5055291;28;20114;-77
2023/07/02 04:39:33;;;;;;;4.32;1.77;;;;;;;;;;5032096;28;20501;-78
2023/07/02 04:41:59;;;;;;;3.47;2.00;;;;;;;;;;5026783;28;20028;-76
2023/07/02 04:44:29;;;;;;;6.70;1.80;;;;;;;;;;5041086;28;20392;-76
2023/07/02 04:46:58;;;;;;;4.35;1.70;;;;;;;;;;5050133;28;20032;-76
2023/07/02 04:49:24;;;;;;;4.57;1.73;;;;;;;;;;5005734;28;20035;-76
2023/07/02 04:51:49;;;;;;;3.17;1.80;;;;;;;;;;5045522;28;20037;-76
2023/07/02 04:54:15;;;;;;;3.97;2.05;;;;;;;;;;5063305;28;20399;-77
2023/07/02 04:56:40;;;;;;;4.57;2.40;;;;;;;;;;5019022;28;20044;-76
2023/07/02 04:59:06;;;;;;;10.27;1.75;;;;;;;;;;5034480;28;20024;-77
2023/07/02 05:01:31;;;;;;;2.92;1.77;;;;;;;;;;5065871;28;20389;-77
2023/07/02 05:03:57;;;;;;;5.82;2.15;;;;;;;;;;5042658;28;20388;-77
2023/07/02 05:06:22;;;;;;;6.03;2.10;;;;;;;;;;5050352;28;20490;-77
2023/07/02 05:08:48;;;;;;;7.15;2.38;;;;;;;;;;5021249;28;20168;-75
2023/07/02 05:11:14;;;;;;;8.18;2.30;;;;;;;;;;5033335;28;20460;-77
2023/07/02 05:13:39;;;;;;;3.65;2.00;;;;;;;;;;5032279;28;20055;-76
2023/07/02 05:16:05;;;;;;;5.13;2.17;;;;;;;;;;5043183;28;20025;-77
2023/07/02 05:18:30;;;;;;;10.05;2.28;;;;;;;;;;5030868;28;20052;-77
2023/07/02 05:20:56;;;;;;;4.85;2.50;;;;;;;;;;5054331;28;20499;-77
2023/07/02 05:23:22;;;;;;;5.45;2.47;;;;;;;;;;5067133;28;20385;-77
2023/07/02 05:25:47;;;;;;;4.53;2.05;;;;;;;;;;5059366;28;20479;-76
2023/07/02 05:28:13;;;;;;;8.13;2.75;;;;;;;;;;5026014;28;20059;-77
2023/07/02 05:30:38;;;;;;;8.20;2.78;;;;;;;;;;5047509;28;20040;-77
2023/07/02 05:33:04;;;;;;;4.93;2.97;;;;;;;;;;5052156;28;20330;-77
2023/07/02 05:35:29;;;;;;;6.63;2.90;;;;;;;;;;5065851;28;20025;-76
2023/07/02 05:37:55;;;;;;;5.07;2.67;;;;;;;;;;5025825;28;20079;-76
2023/07/02 05:40:21;;;;;;;4.07;2.50;;;;;;;;;;5007827;28;20091;-76
2023/07/02 05:42:46;;;;;;;7.18;2.83;;;;;;;;;;5017075;28;20033;-77
2023/07/02 05:45:12;;;;;;;3.15;2.55;;;;;;;;;;5023761;28;20445;-75
2023/07/02 05:47:38;;;;;;;7.57;3.40;;;;;;;;;;5050573;28;20049;-75
2023/07/02 05:50:04;;;;;;;5.68;3.00;;;;;;;;;;5046873;28;20033;-77
2023/07/02 05:52:29;;;;;;;7.20;3.05;;;;;;;;;;5061072;28;20097;-76
2023/07/02 05:54:55;;;;;;;6.13;2.88;;;;;;;;;;5036639;28;20491;-76
2023/07/02 05:57:20;;;;;;;4.57;3.05;;;;;;;;;;5058726;28;20016;-76
2023/07/02 05:59:46;;;;;;;5.50;2.83;;;;;;;;;;5067139;28;20487;-76
2023/07/02 06:02:11;;;;;;;4.20;3.03;;;;;;;;;;5046733;28;20028;-76
2023/07/02 06:04:37;;;;;;;8.13;3.30;;;;;;;;;;5079130;22;20052;-81
2023/07/02 06:07:02;;;;;;;5.15;3.25;;;;;;;;;;5092428;28;20428;-82
2023/07/02 06:09:28;;;;;;;5.97;3.22;;;;;;;;;;5080696;28;20020;-81
2023/07/02 06:11:53;;;;;;;3.85;2.80;;;;;;;;;;5086814;28;20376;-81
2023/07/02 06:14:19;;;;;;;5.78;3.33;;;;;;;;;;5067057;28;20053;-81
2023/07/02 06:16:45;;;;;;;6.88;3.00;;;;;;;;;;5090136;28;20360;-79
2023/07/02 06:19:10;;;;;;;5.22;3.40;;;;;;;;;;5078561;28;20387;-81
2023/07/02 06:21:36;;;;;;;5.00;3.20;;;;;;;;;;5088476;28;20017;-80
2023/07/02 06:24:02;;;;;;;4.63;2.70;;;;;;;;;;5086494;28;20031;-81
2023/07/02 06:26:27;;;;;;;5.53;3.17;;;;;;;;;;5083898;28;20043;-80
2023/07/02 06:28:53;;;;;;;5.75;3.05;;;;;;;;;;5093429;28;20028;-81
2023/07/02 06:31:18;;;;;;;4.68;3.00;;;;;;;;;;5055351;28;20028;-82
2023/07/02 06:33:44;;;;;;;4.10;2.70;;;;;;;;;;5080016;28;20038;-81
2023/07/02 06:36:10;;;;;;;4.55;2.50;;;;;;;;;;5092558;28;20114;-80
2023/07/02 06:38:36;;;;;;;6.97;2.88;;;;;;;;;;5099296;28;20016;-81
2023/07/02 06:41:01;;;;;;;5.93;2.53;;;;;;;;;;5075053;28;20034;-79
2023/07/02 06:43:27;;;;;;;6.22;2.10;;;;;;;;;;5105564;28;20050;-80
2023/07/02 06:45:52;;;;;;;4.25;2.30;;;;;;;;;;5094088;28;20040;-81
2023/07/02 06:48:21;;;;;;;3.08;2.17;;;;;;;;;;5080555;28;20068;-80
2023/07/02 06:50:46;;;;;;;3.72;2.20;;;;;;;;;;5089798;28;20028;-82
2023/07/02 06:53:12;;;;;;;6.40;2.55;;;;;;;;;;5077337;28;20024;-80
2023/07/02 06:55:37;;;;;;;3.75;2.10;;;;;;;;;;5087553;28;20101;-80
2023/07/02 06:58:05;;;;;;;6.90;2.50;;;;;;;;;;5084050;28;20034;-82
2023/07/02 07:00:36;;;;;;;8.40;2.75;;;;;;;;;;5080812;28;20511;-83
2023/07/02 07:03:02;;;;;;;4.20;2.20;;;;;;;;;;5053445;28;20400;-88
2023/07/02 07:05:29;;;;;;;6.03;2.30;;;;;;;;;;5088165;28;20127;-80
2023/07/02 07:07:55;;;;;;;6.80;2.50;;;;;;;;;;5081755;28;20024;-80
2023/07/02 07:10:20;;;;;;;4.78;2.65;;;;;;;;;;5081662;28;20029;-81
2023/07/02 07:12:46;;;;;;;3.90;2.30;;;;;;;;;;5062371;28;20036;-82
2023/07/02 07:15:11;;;;;;;9.77;2.42;;;;;;;;;;5090009;28;20040;-81
2023/07/02 07:17:37;;;;;;;4.55;2.33;;;;;;;;;;5079653;28;20243;-80
2023/07/02 07:20:04;;;;;;;4.75;2.30;;;;;;;;;;5084609;28;20114;-81
2023/07/02 07:22:30;;;;;;;6.95;2.38;;;;;;;;;;5090447;28;20032;-80
2023/07/02 07:24:55;;;;;;;3.85;1.80;;;;;;;;;;5080974;28;20467;-79
2023/07/02 07:27:21;;;;;;;4.65;1.58;;;;;;;;;;5094600;28;20028;-79
2023/07/02 07:29:46;;;;;;;4.68;1.75;;;;;;;;;;5071442;28;20028;-82
2023/07/02 07:32:12;;;;;;;3.03;1.50;;;;;;;;;;5070849;28;20021;-82
2023/07/02 07:34:38;;;;;;;3.78;1.83;;;;;;;;;;5068753;28;20341;-79
2023/07/02 07:37:04;;;;;;;5.50;1.60;;;;;;;;;;5036120;28;20404;-82
2023/07/02 07:39:30;;;;;;;2.83;1.55;;;;;;;;;;5027301;28;20395;-83
2023/07/02 07:41:58;;;;;;;4.10;1.38;;;;;;;;;;5054859;28;20487;-81
2023/07/02 07:44:28;;;;;;;5.72;1.33;;;;;;;;;;5074370;28;20469;-81
2023/07/02 07:46:55;;;;;;;5.30;1.80;;;;;;;;;;5066617;28;20037;-81
2023/07/02 07:49:21;;;;;;;3.42;1.80;;;;;;;;;;5046849;28;20483;-81
2023/07/02 07:51:46;;;;;;;3.60;1.75;;;;;;;;;;5085826;28;20032;-81
2023/07/02 07:54:12;;;;;;;3.05;1.63;;;;;;;;;;5086152;28;20487;-79
2023/07/02 07:56:38;;;;;;;2.60;1.60;;;;;;;;;;5081299;28;20323;-81
2023/07/02 07:59:03;;;;;;;3.10;1.50;;;;;;;;;;5070438;28;20025;-82
2023/07/02 08:01:32;;;;;;;2.38;1.42;;;;;;;;;;5094142;28;20024;-81
2023/07/02 08:04:00;;;;;;;3.72;1.63;;;;;;;;;;5090808;28;20153;-81
2023/07/02 08:06:31;;;;;;;4.85;1.60;;;;;;;;;;5087695;28;20426;-81
2023/07/02 08:08:57;;;;;;;3.92;1.50;;;;;;;;;;5097273;28;20060;-81
2023/07/02 08:11:23;;;;;;;3.42;1.55;;;;;;;;;;5088489;28;20028;-81
2023/07/02 08:13:48;;;;;;;4.53;1.58;;;;;;;;;;5100068;28;20020;-81
2023/07/02 08:16:14;;;;;;;4.18;1.55;;;;;;;;;;5096460;28;20476;-80
2023/07/02 08:18:42;;;;;;;;;;;;;;;;;;5096917;28;20031;-80
2023/07/02 08:21:08;;;;;;;7.63;1.50;;;;;;;;;;5082677;28;19908;-80
2023/07/02 08:23:34;;;;;;;4.38;1.75;;;;;;;;;;5094782;28;20024;-80
2023/07/02 08:25:59;;;;;;;6.55;1.60;;;;;;;;;;5088519;28;20121;-81
2023/07/02 08:28:25;;;;;;;3.13;1.45;;;;;;;;;;5094730;28;20059;-80
2023/07/02 08:30:50;;;;;;;4.10;1.65;;;;;;;;;;5076081;28;20479;-81
2023/07/02 08:33:16;;;;;;;2.95;1.58;;;;;;;;;;5072094;28;20541;-84
2023/07/02 08:35:41;;;;;;;6.55;1.90;;;;;;;;;;5061232;28;20491;-85
2023/07/02 08:38:08;;;;;;;4.50;1.48;;;;;;;;;;5080844;28;20101;-85
2023/07/02 08:40:33;;;;;;;2.88;1.40;;;;;;;;;;5078188;28;20032;-83
2023/07/02 08:42:59;;;;;;;3.40;1.63;;;;;;;;;;5088757;28;20032;-81
2023/07/02 08:45:27;;;;;;;4.78;1.60;;;;;;;;;;5059013;28;20059;-86
2023/07/02 08:47:56;;;;;;;2.67;1.33;;;;;;;;;;5075279;28;20111;-87
2023/07/02 08:50:21;;;;;;;;;;;;;;;;;;5063510;28;20109;-85
2023/07/02 08:52:47;;;;;;;3.50;1.75;;;;;;;;;;5048031;28;20379;-88
2023/07/02 08:55:12;;;;;;;5.88;1.35;;;;;;;;;;5090261;28;20028;-86
2023/07/02 08:57:38;;;;;;;3.40;1.45;;;;;;;;;;5074547;28;20028;-86
2023/07/02 09:00:08;;;;;;;2.75;1.30;;;;;;;;;;5051622;28;20063;-87
2023/07/02 09:02:40;;;;;;;2.50;1.42;;;;;;;;;;5064111;28;20029;-85
2023/07/02 09:05:06;;;;;;;9.70;1.50;;;;;;;;;;5094639;28;20034;-88
2023/07/02 09:07:32;;;;;;;3.58;1.48;;;;;;;;;;5096295;28;20025;-86
2023/07/02 09:09:58;;;;;;;3.53;1.60;;;;;;;;;;5095802;28;20036;-87
2023/07/02 09:12:27;;;;;;;2.63;1.40;;;;;;;;;;5061390;28;20518;-88
2023/07/02 09:14:57;;;;;;;3.50;1.55;;;;;;;;;;5105143;28;20542;-87
2023/07/02 09:17:26;;;;;;;4.93;1.35;;;;;;;;;;5080789;28;20036;-87
2023/07/02 09:20:01;;;;;;;3.53;1.67;;;;;;;;;;5084410;28;20024;-88
2023/07/02 09:22:38;;;;;;;5.07;1.73;;;;;;;;;;5101889;28;20032;-88
2023/07/02 09:25:04;;;;;;;;;;;;;;;;;;5111137;28;20051;-88
2023/07/02 09:28:04;;;;;;;;;;;;;;;;;;5107443;28;19900;-88
2023/07/02 09:30:32;;;;;;;4.47;1.67;;;;;;;;;;5085168;28;19981;-87
2023/07/02 09:33:07;;;;;;;9.02;1.85;;;;;;;;;;5097425;28;20021;-83
2023/07/02 09:35:36;;;;;;;7.65;1.95;;;;;;;;;;5098514;28;20050;-83
2023/07/02 09:38:09;;;;;;;7.57;2.08;;;;;;;;;;5117719;28;20120;-86
2023/07/02 09:40:43;;;;;;;3.03;1.60;;;;;;;;;;5100948;28;20048;-86
2023/07/02 09:43:10;;;;;;;3.10;1.75;;;;;;;;;;5072119;28;20032;-84
2023/07/02 09:45:35;;;;;;;5.57;1.95;;;;;;;;;;5081085;28;20032;-85
2023/07/02 09:48:04;;;;;;;4.90;1.90;;;;;;;;;;5077294;28;20044;-88
2023/07/02 09:50:31;;;;;;;4.65;2.00;;;;;;;;;;5086561;28;20032;-87
2023/07/02 09:52:59;;;;;;;5.60;2.53;;;;;;;;;;5051480;28;20035;-87
2023/07/02 09:55:28;;;;;;;3.90;2.03;;;;;;;;;;5101720;28;20115;-87
2023/07/02 09:58:01;;;;;;;6.28;2.28;;;;;;;;;;5068430;28;20025;-83
2023/07/02 10:00:26;;;;;;;4.53;2.17;;;;;;;;;;5078064;28;20077;-85
2023/07/02 10:03:00;;;;;;;3.97;1.80;;;;;;;;;;5070688;28;20179;-87
2023/07/02 10:05:44;;;;;;;4.28;2.38;;;;;;;;;;5054914;28;20028;-83
2023/07/02 10:08:35;;;;;;;4.75;2.40;;;;;;;;;;5087364;28;20035;-83
2023/07/02 10:11:10;;;;;;;7.25;2.20;;;;;;;;;;5081854;28;20491;-84
2023/07/02 10:13:35;;;;;;;5.32;2.58;;;;;;;;;;5082676;28;20099;-82
2023/07/02 10:16:02;;;;;;;4.47;2.20;;;;;;;;;;5082687;28;20102;-85
2023/07/02 10:18:27;;;;;;;6.25;2.65;;;;;;;;;;5085666;28;20032;-85
2023/07/02 10:20:53;;;;;;;8.07;2.60;;;;;;;;;;5060221;28;20044;-85
2023/07/02 10:23:18;;;;;;;5.97;2.60;;;;;;;;;;5088139;28;20153;-84
2023/07/02 10:25:44;;;;;;;8.77;2.53;;;;;;;;;;5049433;28;20040;-86
2023/07/02 10:28:22;;;;;;;6.03;2.53;;;;;;;;;;5063568;28;20096;-84
2023/07/02 10:30:48;;;;;;;6.07;2.80;;;;;;;;;;5068457;28;20032;-83
2023/07/02 10:33:17;;;;;;;7.80;2.67;;;;;;;;;;5095020;28;20076;-84
2023/07/02 10:35:44;;;;;;;5.65;3.00;;;;;;;;;;5069020;28;20106;-84
2023/07/02 10:38:16;;;;;;;4.93;2.55;;;;;;;;;;5057013;28;20078;-85
2023/07/02 10:40:42;;;;;;;5.45;3.22;;;;;;;;;;5075058;28;20507;-85
2023/07/02 10:43:08;;;;;;;15.02;2.85;;;;;;;;;;5073988;28;20032;-84
2023/07/02 10:45:35;;;;;;;7.43;2.67;;;;;;;;;;5074611;28;20401;-83
2023/07/02 10:48:04;;;;;;;7.85;2.85;;;;;;;;;;5073507;28;20078;-84
2023/07/02 10:50:30;;;;;;;7.78;3.20;;;;;;;;;;5073425;28;20459;-83
2023/07/02 10:52:55;;;;;;;6.25;3.30;;;;;;;;;;5074585;28;20036;-83
2023/07/02 10:55:22;;;;;;;5.53;2.88;;;;;;;;;;5074698;28;20040;-83
2023/07/02 10:57:50;;;;;;;7.30;2.67;;;;;;;;;;5075127;28;20025;-81
2023/07/02 11:00:16;;;;;;;10.00;2.85;;;;;;;;;;5074399;28;20020;-84
2023/07/02 11:02:42;;;;;;;7.45;3.13;;;;;;;;;;5074163;28;20036;-85
2023/07/02 11:05:14;;;;;;;7.15;3.42;;;;;;;;;;5058105;28;20063;-86
2023/07/02 11:07:40;;;;;;;7.60;3.45;;;;;;;;;;5056228;28;20122;-84
2023/07/02 11:10:07;;;;;;;10.40;3.45;;;;;;;;;;5055854;28;20113;-84
2023/07/02 11:12:33;;;;;;;8.27;4.05;;;;;;;;;;5074896;28;20038;-84
2023/07/02 11:15:11;;;;;;;16.58;4.53;;;;;;;;;;5074802;28;20518;-87
2023/07/02 11:17:39;;;;;;;9.88;4.28;;;;;;;;;;5066227;28;20028;-88
2023/07/02 11:20:05;;;;;;;11.10;4.13;;;;;;;;;;5058832;28;20094;-87
2023/07/02 11:22:32;;;;;;;11.35;4.30;;;;;;;;;;5059693;28;20032;-82
2023/07/02 11:25:08;;;;;;;9.75;4.50;;;;;;;;;;5052714;28;20033;-86
2023/07/02 11:27:34;;;;;;;11.52;4.68;;;;;;;;;;5037305;28;20032;-85
2023/07/02 11:29:59;;;;;;;9.45;4.57;;;;;;;;;;5053750;28;20029;-84
2023/07/02 11:32:25;;;;;;;10.20;4.50;;;;;;;;;;5038170;28;20033;-86
2023/07/02 11:34:54;;;;;;;11.40;4.70;;;;;;;;;;5058104;28;20099;-87
2023/07/02 11:37:20;;;;;;;10.43;4.18;;;;;;;;;;5054184;28;20037;-86
2023/07/02 11:39:45;;;;;;;8.60;4.47;;;;;;;;;;5055327;28;20037;-85
2023/07/02 11:42:11;;;;;;;12.18;5.15;;;;;;;;;;5057876;28;20028;-88
2023/07/02 11:44:40;;;;;;;11.48;5.13;;;;;;;;;;5046960;28;20076;-80
2023/07/02 11:47:05;;;;;;;45.22;30.02;;;;;;;;;;5054818;28;20027;-85
2023/07/02 11:49:31;;;;;;;13.52;6.85;;;;;;;;;;5027987;28;20029;-89
2023/07/02 11:51:57;;;;;;;12.45;5.68;;;;;;;;;;5072112;28;20020;-88
2023/07/02 11:54:23;;;;;;;12.73;7.20;;;;;;;;;;5062939;28;20049;-88
2023/07/02 11:56:48;;;;;;;9.73;5.05;;;;;;;;;;5064313;28;20040;-88
2023/07/02 11:59:14;;;;;;;11.32;5.05;;;;;;;;;;5064432;28;20066;-88
2023/07/02 12:01:40;;;;;;;11.00;5.65;;;;;;;;;;5097361;28;20078;-86
2023/07/02 12:04:07;;;;;;;9.85;4.18;;;;;;;;;;5080286;28;20020;-86
2023/07/02 12:06:33;;;;;;;10.23;5.20;;;;;;;;;;5080422;28;20028;-86
2023/07/02 12:08:59;;;;;;;11.27;4.95;;;;;;;;;;5056341;28;20085;-86
2023/07/02 12:11:24;;;;;;;10.73;5.43;;;;;;;;;;5069539;28;20028;-88
2023/07/02 12:13:50;;;;;;;8.38;4.75;;;;;;;;;;5078398;28;20509;-87
2023/07/02 12:16:16;;;;;;;8.07;4.88;;;;;;;;;;5056104;28;20028;-87
2023/07/02 12:18:41;;;;;;;9.85;4.60;;;;;;;;;;5071646;28;20430;-87
2023/07/02 12:21:07;;;;;;;12.20;4.55;;;;;;;;;;5070800;28;20021;-87
2023/07/02 12:23:32;;;;;;;15.18;5.50;;;;;;;;;;5036974;28;20134;-87
2023/07/02 12:25:58;;;;;;;11.07;4.82;;;;;;;;;;5037819;28;20087;-87
2023/07/02 12:28:26;;;;;;;8.23;4.60;;;;;;;;;;5057027;28;20086;-87
2023/07/02 12:30:52;;;;;;;9.27;4.30;;;;;;;;;;5063788;28;20488;-87
2023/07/02 12:33:18;;;;;;;9.80;4.97;;;;;;;;;;5079859;28;20038;-90
2023/07/02 12:35:43;;;;;;;11.80;5.07;;;;;;;;;;5055632;28;20032;-85
2023/07/02 12:38:09;;;;;;;11.75;5.20;;;;;;;;;;5071848;28;20135;-86
2023/07/02 12:40:35;;;;;;;10.05;4.80;;;;;;;;;;5064076;28;20101;-86
2023/07/02 12:43:00;;;;;;;8.93;4.30;;;;;;;;;;5053066;28;20036;-84
2023/07/02 12:45:26;;;;;;;10.38;4.55;;;;;;;;;;5078015;28;20073;-88
2023/07/02 12:47:51;;;;;;;11.60;4.85;;;;;;;;;;5062541;28;20033;-87
2023/07/02 12:50:17;;;;;;;10.55;5.47;;;;;;;;;;5085646;28;20398;-87
2023/07/02 12:52:43;;;;;;;9.77;4.80;;;;;;;;;;5039701;28;20474;-86
2023/07/02 12:55:08;;;;;;;9.40;4.68;;;;;;;;;;5073037;28;20111;-87
2023/07/02 12:57:34;;;;;;;12.05;4.75;;;;;;;;;;5074517;28;20176;-88
2023/07/02 12:59:59;;;;;;;9.60;4.63;;;;;;;;;;5084526;28;20445;-87
2023/07/02 13:02:25;;;;;;;10.88;5.43;;;;;;;;;;5047828;28;20025;-86
2023/07/02 13:04:51;;;;;;;11.82;5.10;;;;;;;;;;5067665;28;20028;-86
2023/07/02 13:07:17;;;;;;;13.13;5.18;;;;;;;;;;5040670;28;20047;-85
2023/07/02 13:09:43;;;;;;;10.43;5.00;;;;;;;;;;5056761;28;20040;-86
2023/07/02 13:12:09;;;;;;;10.43;5.43;;;;;;;;;;5084380;28;20032;-87
2023/07/02 13:14:35;;;;;;;107.68;63.45;;;;;;;;;;5075761;28;20028;-85
2023/07/02 13:17:03;;;;;;;18.65;9.52;;;;;;;;;;5055258;28;20043;-85
2023/07/02 13:19:28;;;;;;;16.48;9.73;;;;;;;;;;5060547;28;20079;-85
2023/07/02 13:21:54;;;;;;;12.68;5.60;;;;;;;;;;5085669;28;20044;-86
2023/07/02 13:24:20;;;;;;;13.48;6.15;;;;;;;;;;5082326;28;20032;-85
2023/07/02 13:26:45;;;;;;;10.95;5.45;;;;;;;;;;5077894;28;20398;-87
2023/07/02 13:29:13;;;;;;;9.52;5.43;;;;;;;;;;5090467;28;20020;-86
2023/07/02 13:31:50;;;;;;;19.17;10.45;;;;;;;;;;5063646;28;20028;-85
2023/07/02 13:34:15;;;;;;;13.43;6.65;;;;;;;;;;5082432;28;20059;-84
2023/07/02 13:36:50;;;;;;;14.07;7.35;;;;;;;;;;5063599;28;20040;-88
2023/07/02 13:39:39;;;;;;;15.48;6.38;;;;;;;;;;5059960;28;20378;-87
2023/07/02 13:42:07;;;;;;;14.05;5.97;;;;;;;;;;5070947;28;20108;-86
2023/07/02 13:44:33;;;;;;;12.25;6.55;;;;;;;;;;5065036;28;20502;-85
2023/07/02 13:47:01;;;;;;;11.05;6.40;;;;;;;;;;5058481;28;20522;-87
2023/07/02 13:49:27;;;;;;;11.07;6.22;;;;;;;;;;5059189;28;20024;-86
2023/07/02 13:51:53;;;;;;;12.27;6.00;;;;;;;;;;5071545;28;20522;-85
2023/07/02 13:54:19;;;;;;;12.13;6.10;;;;;;;;;;5076398;28;20036;-84
2023/07/02 13:56:45;;;;;;;15.27;6.38;;;;;;;;;;5063821;28;20053;-85
2023/07/02 13:59:12;;;;;;;14.82;5.88;;;;;;;;;;5065332;28;20032;-84
2023/07/02 14:01:38;;;;;;;14.60;6.15;;;;;;;;;;5060036;28;20592;-84
2023/07/02 14:04:10;;;;;;;15.85;5.88;;;;;;;;;;5056621;28;20038;-83
2023/07/02 14:06:36;;;;;;;13.40;6.03;;;;;;;;;;5062784;28;20028;-81
2023/07/02 14:09:02;;;;;;;12.45;6.10;;;;;;;;;;5080912;28;20059;-83
2023/07/02 14:11:28;;;;;;;19.00;6.35;;;;;;;;;;5066798;28;20099;-84
2023/07/02 14:13:54;;;;;;;15.88;6.18;;;;;;;;;;5097452;28;20066;-84
2023/07/02 14:16:20;;;;;;;14.30;6.85;;;;;;;;;;5094561;28;20033;-81
2023/07/02 14:18:46;;;;;;;16.40;7.03;;;;;;;;;;5098280;28;20132;-83
2023/07/02 14:21:12;;;;;;;13.63;6.82;;;;;;;;;;5086084;28;20488;-84
2023/07/02 14:23:38;;;;;;;16.27;7.20;;;;;;;;;;5061828;28;20033;-84
2023/07/02 14:26:04;;;;;;;12.32;5.75;;;;;;;;;;5084063;28;20032;-82
2023/07/02 14:28:29;;;;;;;17.33;7.88;;;;;;;;;;5073606;28;20040;-83
2023/07/02 14:30:56;;;;;;;15.77;7.15;;;;;;;;;;5070695;28;20403;-82
2023/07/02 14:33:21;;;;;;;13.10;6.85;;;;;;;;;;5099875;28;20060;-83
2023/07/02 14:35:47;;;;;;;14.35;6.90;;;;;;;;;;5097278;28;20028;-82
2023/07/02 14:38:13;;;;;;;12.52;6.75;;;;;;;;;;5080358;28;20029;-85